Latest Coastal Weather Observations for Browse Island

IDD60701

Issued at 10:41 am CST Saturday 10 December 2016 (issued every 10 minutes, with the page automatically refreshed every 10 minutes)

About coastal observations | Map of coastal stations | Coastal observations for NT | Marine services | Other Formats
Station Details ID: 200784 Name: BROWSE ISLAND Lat: -14.11 Lon: 123.55 Height: 3.7 m
Data from the previous 72 hours. | See also: Recent months at Browse Island
Date/Time
CST
Temp
°C
Wind Pressure Rain since
9am
mm
Weather Cloud Vis
km
Sea
Height
m
Swell
Dir  Spd
kts
Gust
kts
hPa Trend Height
m
Period
s
Dir
10/10:30am 29.3 ENE 10 12 1009.6 - - - - - - - - -
10/10:00am 28.6 ESE 9 11 1009.7 - - - - - - - - -
10/09:30am 28.2 SE 12 15 1009.7 - - - - - - - - -
10/09:00am 27.8 SSE 14 16 1010.1 - - - - - - - - -
10/08:30am 28.1 SSE 17 20 1010.3 - - - - - - - - -
10/08:00am 28.1 SSE 18 20 1010.1 - - - - - - - - -
10/07:30am 27.5 SSE 23 27 1009.7 - - - - - - - - -
10/07:00am 27.5 SE 23 28 1009.0 - - - - - - - - -
10/06:30am 27.7 SE 23 29 1008.8 - - - - - - - - -
10/06:20am 28.0 SSE 9 24 1008.8 - - - - - - - - -
10/06:00am 30.2 SSW 7 8 1008.4 - - - - - - - - -
10/05:30am 30.2 SW 7 9 1008.0 - - - - - - - - -
10/05:00am 30.2 WSW 8 9 1007.6 - - - - - - - - -
10/04:30am 30.2 W 8 9 1007.2 - - - - - - - - -
10/04:00am 30.1 W 9 11 1007.1 - - - - - - - - -
10/03:30am 30.2 W 9 10 1006.8 - - - - - - - - -
10/03:00am 30.2 WNW 10 11 1006.8 - - - - - - - - -
10/02:30am 30.2 WNW 12 14 1006.9 - - - - - - - - -
10/02:00am 30.3 WNW 12 13 1007.2 - - - - - - - - -
10/01:30am 30.5 W 12 13 1007.6 - - - - - - - - -
10/01:00am 30.5 WNW 10 11 1008.0 - - - - - - - - -
10/12:30am 30.7 WNW 9 11 1008.5 - - - - - - - - -
10/12:00am 30.8 WNW 8 10 1008.6 - - - - - - - - -
 
Date/Time
CST
Temp
°C
Wind Pressure Rain since
9am
mm
Weather Cloud Vis
km
Sea
Height
m
Swell
Dir  Spd
kts
Gust
kts
hPa Trend Height
m
Period
s
Dir
09/11:30pm 30.8 WNW 9 11 1008.7 - - - - - - - - -
09/11:00pm 31.0 WNW 9 10 1008.6 - - - - - - - - -
09/10:30pm 31.0 WNW 8 9 1008.5 - - - - - - - - -
09/10:00pm 31.0 NW 7 8 1008.3 - - - - - - - - -
09/09:30pm 31.0 NW 7 8 1008.0 - - - - - - - - -
09/09:00pm 30.9 WNW 8 10 1007.6 - - - - - - - - -
09/08:30pm 30.8 NW 8 9 1007.0 - - - - - - - - -
09/08:00pm 30.8 NW 8 9 1006.7 - - - - - - - - -
09/07:30pm 30.9 NW 7 9 1005.9 - - - - - - - - -
09/07:00pm 30.9 NW 7 9 1005.5 - - - - - - - - -
09/06:30pm 31.1 NW 8 11 1005.0 - - - - - - - - -
09/06:00pm 31.0 NW 8 9 1004.8 - - - - - - - - -
09/05:30pm 31.1 NW 7 8 1004.7 - - - - - - - - -
09/05:00pm 31.6 NW 7 8 1004.9 - - - - - - - - -
09/04:30pm 31.3 NW 7 8 1004.7 - - - - - - - - -
09/04:00pm 31.5 NNW 8 9 1005.0 - - - - - - - - -
09/03:30pm 31.7 NNW 7 8 1005.4 - - - - - - - - -
09/03:00pm 32.0 NNW 6 8 1005.7 - - - - - - - - -
09/02:30pm 31.5 NNW 6 8 1005.9 - - - - - - - - -
09/02:00pm 31.6 WNW 5 7 1006.3 - - - - - - - - -
09/01:30pm 31.6 WNW 5 6 1006.5 - - - - - - - - -
09/01:00pm 31.5 W 4 5 1006.7 - - - - - - - - -
09/12:30pm 31.3 WNW 4 5 1006.8 - - - - - - - - -
09/12:00pm 31.6 WNW 4 5 1007.2 - - - - - - - - -
09/11:30am 30.9 WNW 4 6 1007.5 - - - - - - - - -
09/11:00am 31.0 W 5 6 1007.5 - - - - - - - - -
09/10:30am 30.8 WSW 6 7 1007.6 - - - - - - - - -
09/10:00am 30.6 SW 5 6 1007.6 - - - - - - - - -
09/09:30am 30.5 SW 5 6 1007.6 - - - - - - - - -
09/09:00am 30.4 SSW 8 9 1007.4 - - - - - - - - -
09/08:30am 30.2 SSW 9 11 1007.3 - - - - - - - - -
09/08:00am 30.2 SSW 8 11 1007.2 - - - - - - - - -
09/07:30am 30.0 SSW 11 13 1007.1 - - - - - - - - -
09/07:00am 30.0 SSW 11 13 1006.8 - - - - - - - - -
09/06:30am 30.1 SSW 9 11 1006.5 - - - - - - - - -
09/06:00am 30.0 SSW 11 13 1006.3 - - - - - - - - -
09/05:30am 30.0 SSW 11 13 1006.3 - - - - - - - - -
09/05:00am 30.2 SSW 11 13 1006.3 - - - - - - - - -
09/04:30am 30.1 SW 9 - 1006.2 - - - - - - - - -
09/04:00am 30.0 SW 11 12 1005.9 - - - - - - - - -
09/03:30am 30.1 WSW 10 13 1005.7 - - - - - - - - -
09/03:00am 30.1 WSW 11 13 1005.8 - - - - - - - - -
09/02:30am 30.1 WSW 11 13 1005.8 - - - - - - - - -
09/02:00am 30.2 WSW 12 13 1005.7 - - - - - - - - -
09/01:30am 30.1 W 12 13 1006.0 - - - - - - - - -
09/01:00am 30.1 WSW 12 13 1006.2 - - - - - - - - -
09/12:30am 30.2 WSW 11 13 1006.6 - - - - - - - - -
09/12:00am 30.3 WSW 11 13 1007.1 - - - - - - - - -
 
Date/Time
CST
Temp
°C
Wind Pressure Rain since
9am
mm
Weather Cloud Vis
km
Sea
Height
m
Swell
Dir  Spd
kts
Gust
kts
hPa Trend Height
m
Period
s
Dir
08/11:30pm 30.3 W 11 13 1007.1 - - - - - - - - -
08/11:00pm 30.3 W 12 14 1007.1 - - - - - - - - -
08/10:30pm 30.3 W 11 13 1007.0 - - - - - - - - -
08/10:00pm 30.2 W 13 14 1006.8 - - - - - - - - -
08/09:30pm 30.3 WNW 13 14 1006.4 - - - - - - - - -
08/09:00pm 30.2 WNW 11 12 1006.4 - - - - - - - - -
08/08:30pm 30.2 W 9 10 1006.2 - - - - - - - - -
08/08:00pm 30.2 W 8 9 1005.9 - - - - - - - - -
08/07:30pm 30.3 W 7 8 1005.7 - - - - - - - - -
08/07:00pm 30.4 WSW 8 9 1005.5 - - - - - - - - -
08/06:30pm 30.5 SW 8 9 1005.4 - - - - - - - - -
08/06:00pm 30.5 WSW 7 8 1005.1 - - - - - - - - -
08/05:30pm 30.4 WSW 9 10 1004.6 - - - - - - - - -
08/05:00pm 30.5 WSW 8 9 1004.3 - - - - - - - - -
08/04:30pm 30.5 SW 7 9 1004.9 - - - - - - - - -
08/04:00pm 30.5 WSW 7 9 1005.0 - - - - - - - - -
08/03:30pm 30.6 WSW 8 9 1005.2 - - - - - - - - -
08/03:00pm 30.3 SW 8 9 1005.5 - - - - - - - - -
08/02:30pm 30.5 SW 8 9 1005.7 - - - - - - - - -
08/02:00pm 30.2 SW 8 9 1006.0 - - - - - - - - -
08/01:30pm 30.1 SW 8 9 1006.5 - - - - - - - - -
08/01:00pm 30.1 SW 7 9 1006.8 - - - - - - - - -
08/12:30pm 30.2 SW 9 11 1007.2 - - - - - - - - -
08/12:00pm 30.0 SW 9 11 1007.7 - - - - - - - - -
08/11:30am 30.0 SW 9 11 1007.8 - - - - - - - - -
08/11:00am 30.1 SW 9 11 1008.0 - - - - - - - - -
08/10:30am 30.3 SW 9 12 1008.0 - - - - - - - - -
08/10:00am 30.1 WSW 10 11 1007.9 - - - - - - - - -
08/09:30am 30.1 SW 10 12 1008.0 - - - - - - - - -
08/09:00am 30.0 WSW 10 11 1007.9 - - - - - - - - -
08/08:30am 29.9 WSW 10 11 1007.6 - - - - - - - - -
08/08:00am 29.9 WSW 10 12 1007.6 - - - - - - - - -
08/07:30am 29.9 WSW 9 10 1007.5 - - - - - - - - -
08/07:00am 29.9 WSW 10 11 1007.3 - - - - - - - - -
08/06:30am 29.8 WSW 9 11 1007.2 - - - - - - - - -
08/06:00am 29.8 WSW 9 10 1006.9 - - - - - - - - -
08/05:30am 29.7 WSW 9 10 1006.7 - - - - - - - - -
08/05:00am 29.9 WSW 8 10 1006.5 - - - - - - - - -
08/04:30am 29.8 WSW 8 9 1006.4 - - - - - - - - -
08/04:00am 29.9 WSW 8 10 1006.3 - - - - - - - - -
08/03:30am 29.9 W 9 10 1006.5 - - - - - - - - -
08/03:00am 30.0 WNW 9 11 1006.6 - - - - - - - - -
08/02:30am 30.1 W 10 12 1006.9 - - - - - - - - -
08/02:00am 30.1 WNW 9 11 1007.1 - - - - - - - - -
08/01:30am 30.1 WNW 10 11 1007.4 - - - - - - - - -
08/01:00am 30.2 WNW 10 11 1007.7 - - - - - - - - -
08/12:30am 30.0 WNW 9 11 1008.0 - - - - - - - - -
08/12:00am 30.2 WNW 10 11 1008.2 - - - - - - - - -
 
Date/Time
CST
Temp
°C
Wind Pressure Rain since
9am
mm
Weather Cloud Vis
km
Sea
Height
m
Swell
Dir  Spd
kts
Gust
kts
hPa Trend Height
m
Period
s
Dir
07/11:30pm 30.3 WNW 9 10 1008.5 - - - - - - - - -
07/11:00pm 30.3 NW 8 9 1008.6 - - - - - - - - -
07/10:30pm 30.4 NW 8 9 1008.4 - - - - - - - - -
07/10:00pm 30.5 NW 8 8 1008.3 - - - - - - - - -
07/09:30pm 30.6 WNW 6 8 1008.2 - - - - - - - - -
07/09:00pm 30.6 NW 5 6 1007.7 - - - - - - - - -
07/08:30pm 30.3 WNW 3 5 1007.1 - - - - - - - - -
07/08:00pm 30.4 WNW 4 5 1006.6 - - - - - - - - -
07/07:30pm 30.4 CALM 0 0 1006.5 - - - - - - - - -
07/07:00pm 30.6 CALM 0 0 1006.2 - - - - - - - - -
07/06:30pm 30.8 SW 2 3 1006.0 - - - - - - - - -
07/06:00pm 30.9 SSW 3 4 1005.9 - - - - - - - - -
07/05:30pm 31.0 S 3 4 1006.0 - - - - - - - - -
07/05:00pm 32.0 SSE 3 5 1006.3 - - - - - - - - -
07/04:30pm 32.1 WSW 3 4 1006.5 - - - - - - - - -
07/04:00pm 32.2 SSW 4 5 1006.7 - - - - - - - - -
07/03:30pm 32.0 SSW 4 5 1007.2 - - - - - - - - -
07/03:00pm 32.2 W 4 11 1007.6 - - - - - - - - -
07/02:30pm 32.5 NE 4 6 1008.1 - - - - - - - - -
07/02:00pm 32.0 NE 5 6 1008.3 - - - - - - - - -
07/01:30pm 32.5 ENE 5 6 1008.6 - - - - - - - - -
07/01:00pm 32.0 ENE 4 6 1008.8 - - - - - - - - -
07/12:30pm 33.2 NNE 4 6 1009.0 - - - - - - - - -

Other Formats:

Comma delimited format used in spreadsheet applications
http://www.bom.gov.au/fwo/IDD60701/IDD60701.94103.axf

JavaScript Object Notation format (JSON) in row-major order
http://www.bom.gov.au/fwo/IDD60701/IDD60701.94103.json